Time;durP1;ratioP1;P1;durP2;ratioP2;P2;SDS_P1;SDS_P2;PMS_P1;PMS_P2;Temp;Humidity;BMP_temperature;BMP_pressure;BME280_temperature;BME280_humidity;BME280_pressure;Samples;Min_cycle;Max_cycle;Signal;HPM_P1;HPM_P2
2022/07/21 00:01:57;;;;;;;7.70;7.00;;;;;;;;;;5099380;28;20106;-71
2022/07/21 00:04:23;;;;;;;7.95;7.15;;;;;;;;;;5107602;28;20044;-70
2022/07/21 00:06:50;;;;;;;9.00;7.97;;;;;;;;;;5108661;28;20066;-72
2022/07/21 00:09:17;;;;;;;9.25;8.23;;;;;;;;;;5109053;27;20139;-69
2022/07/21 00:11:43;;;;;;;9.70;8.70;;;;;;;;;;5110773;28;20056;-70
2022/07/21 00:14:10;;;;;;;10.02;9.02;;;;;;;;;;5110522;27;20048;-70
2022/07/21 00:16:38;;;;;;;11.77;9.70;;;;;;;;;;5110306;28;20566;-69
2022/07/21 00:19:05;;;;;;;10.82;9.48;;;;;;;;;;5109736;28;20086;-69
2022/07/21 00:21:32;;;;;;;10.68;9.52;;;;;;;;;;5110304;27;20048;-70
2022/07/21 00:23:58;;;;;;;11.02;9.93;;;;;;;;;;5110414;27;20055;-69
2022/07/21 00:26:24;;;;;;;18.10;10.40;;;;;;;;;;5106646;28;20102;-70
2022/07/21 00:28:51;;;;;;;12.05;9.75;;;;;;;;;;5109609;27;20533;-69
2022/07/21 00:31:18;;;;;;;11.90;9.80;;;;;;;;;;5109870;27;20052;-69
2022/07/21 00:33:44;;;;;;;10.57;9.55;;;;;;;;;;5110307;27;20060;-69
2022/07/21 00:36:11;;;;;;;10.45;9.13;;;;;;;;;;5108189;27;20106;-70
2022/07/21 00:38:37;;;;;;;10.13;9.13;;;;;;;;;;5107244;28;20074;-69
2022/07/21 00:41:11;;;;;;;12.43;8.38;;;;;;;;;;5108534;27;20463;-69
2022/07/21 00:43:37;;;;;;;12.10;8.45;;;;;;;;;;5110116;27;20052;-69
2022/07/21 00:46:03;;;;;;;9.20;7.72;;;;;;;;;;5111071;27;20047;-69
2022/07/21 00:48:30;;;;;;;8.48;7.60;;;;;;;;;;5097614;27;20123;-69
2022/07/21 00:50:56;;;;;;;9.27;8.27;;;;;;;;;;5108098;27;20052;-69
2022/07/21 00:53:22;;;;;;;9.27;7.65;;;;;;;;;;5109000;28;20533;-68
2022/07/21 00:55:49;;;;;;;8.63;7.82;;;;;;;;;;5109321;27;20093;-69
2022/07/21 00:58:16;;;;;;;9.73;8.50;;;;;;;;;;5109595;27;20436;-68
2022/07/21 01:00:42;;;;;;;9.60;8.70;;;;;;;;;;5106647;28;20135;-69
2022/07/21 01:03:09;;;;;;;9.35;8.32;;;;;;;;;;5107950;28;20142;-69
2022/07/21 01:05:35;;;;;;;8.68;7.75;;;;;;;;;;5109427;28;20052;-69
2022/07/21 01:08:04;;;;;;;16.45;8.45;;;;;;;;;;5109155;27;20044;-69
2022/07/21 01:10:31;;;;;;;8.85;7.95;;;;;;;;;;5108225;28;20058;-69
2022/07/21 01:12:58;;;;;;;8.43;7.53;;;;;;;;;;5109573;28;20056;-70
2022/07/21 01:15:24;;;;;;;7.97;7.13;;;;;;;;;;5107620;28;20135;-68
2022/07/21 01:17:51;;;;;;;8.18;7.45;;;;;;;;;;5109643;27;20054;-70
2022/07/21 01:20:19;;;;;;;8.60;7.57;;;;;;;;;;5108475;28;20082;-70
2022/07/21 01:22:47;;;;;;;7.85;7.13;;;;;;;;;;5110120;27;20051;-70
2022/07/21 01:25:14;;;;;;;8.07;7.28;;;;;;;;;;5109376;27;20548;-69
2022/07/21 01:27:40;;;;;;;8.18;7.18;;;;;;;;;;5109285;28;20131;-69
2022/07/21 01:30:08;;;;;;;8.38;7.57;;;;;;;;;;5107004;27;20568;-68
2022/07/21 01:32:36;;;;;;;8.27;7.47;;;;;;;;;;5109509;27;20134;-68
2022/07/21 01:35:03;;;;;;;9.18;7.90;;;;;;;;;;5104101;27;20062;-70
2022/07/21 01:37:30;;;;;;;7.50;6.75;;;;;;;;;;5103070;28;20048;-69
2022/07/21 01:42:41;;;;;;;7.60;6.90;;;;;;;;;;5107916;28;20072;-69
2022/07/21 01:45:08;;;;;;;9.73;7.65;;;;;;;;;;5108160;27;20135;-69
2022/07/21 01:47:35;;;;;;;9.65;7.43;;;;;;;;;;5110097;27;20084;-69
2022/07/21 01:50:01;;;;;;;8.55;7.65;;;;;;;;;;5107943;27;20056;-70
2022/07/21 01:52:27;;;;;;;7.40;6.70;;;;;;;;;;5106395;27;20150;-68
2022/07/21 01:54:54;;;;;;;8.90;8.07;;;;;;;;;;5109291;27;20500;-69
2022/07/21 01:57:20;;;;;;;8.75;7.85;;;;;;;;;;5109594;27;20056;-68
2022/07/21 01:59:46;;;;;;;8.88;7.97;;;;;;;;;;5108215;27;20062;-68
2022/07/21 02:02:13;;;;;;;8.73;7.82;;;;;;;;;;5108558;27;20110;-68
2022/07/21 02:04:39;;;;;;;9.32;8.43;;;;;;;;;;5109784;28;20132;-69
2022/07/21 02:07:06;;;;;;;9.35;8.38;;;;;;;;;;5110127;27;20543;-68
2022/07/21 02:09:32;;;;;;;10.23;8.55;;;;;;;;;;5105007;27;20169;-67
2022/07/21 02:11:58;;;;;;;10.10;8.52;;;;;;;;;;5097117;28;20074;-68
2022/07/21 02:14:25;;;;;;;10.10;8.77;;;;;;;;;;5108670;27;20138;-68
2022/07/21 02:16:51;;;;;;;11.32;8.48;;;;;;;;;;5109513;28;21746;-68
2022/07/21 02:19:17;;;;;;;8.68;7.85;;;;;;;;;;5108613;28;20052;-68
2022/07/21 02:21:44;;;;;;;8.55;7.75;;;;;;;;;;5106799;28;20537;-68
2022/07/21 02:24:10;;;;;;;8.93;8.02;;;;;;;;;;5109888;27;20109;-68
2022/07/21 02:26:36;;;;;;;8.57;7.78;;;;;;;;;;5108462;28;20662;-68
2022/07/21 02:29:03;;;;;;;8.32;7.53;;;;;;;;;;5104730;28;20052;-69
2022/07/21 02:31:29;;;;;;;8.80;7.72;;;;;;;;;;5107974;28;20178;-68
2022/07/21 02:33:55;;;;;;;8.50;7.68;;;;;;;;;;5092749;28;20534;-68
2022/07/21 02:36:22;;;;;;;10.07;8.20;;;;;;;;;;5108440;28;20052;-67
2022/07/21 02:38:50;;;;;;;9.85;8.43;;;;;;;;;;5106477;27;20051;-66
2022/07/21 02:41:17;;;;;;;9.00;8.05;;;;;;;;;;5106862;28;20529;-68
2022/07/21 02:43:43;;;;;;;8.65;7.72;;;;;;;;;;5109451;27;20052;-67
2022/07/21 02:46:09;;;;;;;9.73;8.70;;;;;;;;;;5107722;27;20079;-67
2022/07/21 02:48:36;;;;;;;10.07;8.88;;;;;;;;;;5108059;27;20083;-67
2022/07/21 02:51:02;;;;;;;10.15;8.60;;;;;;;;;;5108596;27;20048;-67
2022/07/21 02:53:29;;;;;;;9.07;8.18;;;;;;;;;;5106098;28;20052;-67
2022/07/21 02:55:55;;;;;;;7.97;7.28;;;;;;;;;;5106789;28;20089;-67
2022/07/21 02:58:26;;;;;;;8.70;7.90;;;;;;;;;;5108792;27;20155;-67
2022/07/21 03:00:57;;;;;;;10.40;7.93;;;;;;;;;;5107490;27;20056;-68
2022/07/21 03:03:24;;;;;;;9.15;8.15;;;;;;;;;;5105302;27;20137;-67
2022/07/21 03:05:51;;;;;;;9.80;8.85;;;;;;;;;;5108051;27;20086;-66
2022/07/21 03:08:17;;;;;;;8.93;8.02;;;;;;;;;;5108673;27;20515;-68
2022/07/21 03:10:44;;;;;;;9.45;8.40;;;;;;;;;;5107876;27;20502;-67
2022/07/21 03:13:10;;;;;;;9.88;8.88;;;;;;;;;;5108613;27;20135;-67
2022/07/21 03:15:37;;;;;;;11.35;9.50;;;;;;;;;;5110775;27;20864;-67
2022/07/21 03:18:04;;;;;;;10.85;9.75;;;;;;;;;;5104496;28;20451;-70
2022/07/21 03:20:31;;;;;;;10.43;9.32;;;;;;;;;;5106703;27;20153;-66
2022/07/21 03:22:57;;;;;;;10.63;9.52;;;;;;;;;;5109989;27;20056;-68
2022/07/21 03:25:24;;;;;;;10.85;9.75;;;;;;;;;;5111108;27;20143;-68
2022/07/21 03:27:50;;;;;;;13.13;11.85;;;;;;;;;;5111010;28;20554;-68
2022/07/21 03:30:17;;;;;;;11.85;10.60;;;;;;;;;;5109932;27;20055;-66
2022/07/21 03:32:44;;;;;;;12.55;11.35;;;;;;;;;;5110303;27;20444;-67
2022/07/21 03:35:11;;;;;;;12.00;10.80;;;;;;;;;;5110430;27;20063;-66
2022/07/21 03:37:42;;;;;;;12.98;11.68;;;;;;;;;;5111668;28;20056;-66
2022/07/21 03:40:09;;;;;;;12.95;10.73;;;;;;;;;;5109433;28;20054;-69
2022/07/21 03:42:35;;;;;;;13.35;12.05;;;;;;;;;;5109752;27;20496;-66
2022/07/21 03:45:02;;;;;;;13.18;11.88;;;;;;;;;;5110695;27;20062;-66
2022/07/21 03:47:28;;;;;;;16.00;12.05;;;;;;;;;;5110740;27;20044;-68
2022/07/21 03:49:55;;;;;;;14.30;12.65;;;;;;;;;;5107722;27;20062;-66
2022/07/21 03:52:21;;;;;;;14.93;13.35;;;;;;;;;;5110212;27;20139;-66
2022/07/21 03:54:47;;;;;;;13.45;12.18;;;;;;;;;;5108547;27;20059;-66
2022/07/21 03:57:14;;;;;;;14.40;12.90;;;;;;;;;;5107792;27;20063;-66
2022/07/21 03:59:40;;;;;;;14.18;12.73;;;;;;;;;;5110081;28;20144;-66
2022/07/21 04:02:07;;;;;;;14.15;12.75;;;;;;;;;;5108818;27;20052;-66
2022/07/21 04:04:33;;;;;;;17.55;14.00;;;;;;;;;;5108510;27;20150;-66
2022/07/21 04:06:59;;;;;;;15.13;13.52;;;;;;;;;;5109732;28;20143;-66
2022/07/21 04:09:25;;;;;;;15.82;13.82;;;;;;;;;;5111109;27;20170;-68
2022/07/21 04:11:52;;;;;;;14.60;12.85;;;;;;;;;;5115898;27;20518;-67
2022/07/21 04:14:18;;;;;;;16.70;13.85;;;;;;;;;;5111019;27;20469;-66
2022/07/21 04:16:44;;;;;;;17.15;14.75;;;;;;;;;;5108470;27;20136;-66
2022/07/21 04:19:11;;;;;;;16.48;14.73;;;;;;;;;;5108448;27;20060;-66
2022/07/21 04:21:37;;;;;;;16.58;14.93;;;;;;;;;;5107672;27;20051;-68
2022/07/21 04:24:04;;;;;;;17.30;15.50;;;;;;;;;;5109805;27;20063;-67
2022/07/21 04:26:30;;;;;;;17.88;16.08;;;;;;;;;;5107605;28;20590;-67
2022/07/21 04:28:56;;;;;;;17.65;15.95;;;;;;;;;;5103106;27;20084;-68
2022/07/21 04:31:23;;;;;;;17.92;16.02;;;;;;;;;;5108873;28;20056;-69
2022/07/21 04:33:49;;;;;;;17.15;15.55;;;;;;;;;;5108599;28;20083;-67
2022/07/21 04:36:15;;;;;;;17.65;15.70;;;;;;;;;;5109402;27;20496;-66
2022/07/21 04:38:42;;;;;;;17.40;15.57;;;;;;;;;;5109772;27;20518;-67
2022/07/21 04:41:08;;;;;;;25.17;17.33;;;;;;;;;;5099949;27;20507;-66
2022/07/21 04:43:34;;;;;;;20.05;16.15;;;;;;;;;;5110331;28;20052;-66
2022/07/21 04:46:01;;;;;;;21.33;17.30;;;;;;;;;;5110697;27;20614;-66
2022/07/21 04:48:28;;;;;;;20.88;17.73;;;;;;;;;;5110299;28;20060;-66
2022/07/21 04:50:54;;;;;;;18.35;16.45;;;;;;;;;;5110100;27;20072;-67
2022/07/21 04:53:20;;;;;;;20.23;16.33;;;;;;;;;;5108864;27;20579;-67
2022/07/21 04:55:47;;;;;;;19.55;17.08;;;;;;;;;;5110242;27;20056;-66
2022/07/21 04:58:13;;;;;;;19.55;17.58;;;;;;;;;;5110494;27;20055;-66
2022/07/21 05:00:39;;;;;;;19.88;17.73;;;;;;;;;;5110485;27;20059;-67
2022/07/21 05:03:06;;;;;;;18.55;16.58;;;;;;;;;;5107999;28;20521;-66
2022/07/21 05:05:32;;;;;;;18.52;16.60;;;;;;;;;;5109888;27;20582;-66
2022/07/21 05:07:58;;;;;;;19.98;17.85;;;;;;;;;;5107492;27;20058;-67
2022/07/21 05:10:25;;;;;;;18.92;16.65;;;;;;;;;;5108366;27;20048;-67
2022/07/21 05:12:51;;;;;;;23.63;18.58;;;;;;;;;;5109593;27;20439;-67
2022/07/21 05:15:18;;;;;;;20.75;17.50;;;;;;;;;;5109196;27;20056;-66
2022/07/21 05:17:44;;;;;;;20.35;18.10;;;;;;;;;;5109768;27;20074;-66
2022/07/21 05:20:10;;;;;;;19.80;17.70;;;;;;;;;;5105771;27;20062;-66
2022/07/21 05:22:37;;;;;;;19.23;17.13;;;;;;;;;;5106281;27;20647;-67
2022/07/21 05:25:04;;;;;;;21.13;17.80;;;;;;;;;;5108705;27;20127;-66
2022/07/21 05:27:31;;;;;;;19.02;17.00;;;;;;;;;;5109304;28;20051;-67
2022/07/21 05:29:57;;;;;;;21.23;18.23;;;;;;;;;;5108982;27;20062;-66
2022/07/21 05:32:23;;;;;;;22.50;19.92;;;;;;;;;;5106356;27;20054;-68
2022/07/21 05:34:50;;;;;;;26.27;22.15;;;;;;;;;;5107966;28;20178;-69
2022/07/21 05:37:16;;;;;;;23.08;20.55;;;;;;;;;;5105164;28;20412;-67
2022/07/21 05:39:42;;;;;;;23.67;21.17;;;;;;;;;;5106023;27;20048;-66
2022/07/21 05:42:09;;;;;;;26.10;23.33;;;;;;;;;;5110196;27;20058;-66
2022/07/21 05:44:35;;;;;;;30.70;22.30;;;;;;;;;;5107102;27;20052;-64
2022/07/21 05:47:01;;;;;;;27.35;23.38;;;;;;;;;;5096387;28;20054;-65
2022/07/21 05:49:28;;;;;;;29.85;24.88;;;;;;;;;;5107167;28;20091;-63
2022/07/21 05:51:54;;;;;;;27.75;24.70;;;;;;;;;;5103144;27;20048;-64
2022/07/21 05:54:21;;;;;;;27.23;24.38;;;;;;;;;;5110877;28;20705;-65
2022/07/21 05:56:47;;;;;;;27.70;24.70;;;;;;;;;;5106924;28;20143;-65
2022/07/21 05:59:15;;;;;;;27.23;24.33;;;;;;;;;;5107156;27;20127;-66
2022/07/21 06:01:41;;;;;;;28.25;24.88;;;;;;;;;;5107192;27;20546;-64
2022/07/21 06:04:07;;;;;;;30.15;23.60;;;;;;;;;;5110208;27;20136;-63
2022/07/21 06:06:34;;;;;;;26.30;23.60;;;;;;;;;;5110914;27;20526;-64
2022/07/21 06:09:00;;;;;;;27.58;23.65;;;;;;;;;;5110528;28;20586;-63
2022/07/21 06:11:27;;;;;;;27.67;23.58;;;;;;;;;;5110472;27;20131;-63
2022/07/21 06:14:01;;;;;;;24.17;20.93;;;;;;;;;;5109723;27;20105;-64
2022/07/21 06:16:27;;;;;;;24.55;19.92;;;;;;;;;;5109933;27;20056;-63
2022/07/21 06:18:54;;;;;;;26.33;23.00;;;;;;;;;;5106472;28;20579;-63
2022/07/21 06:21:21;;;;;;;25.45;21.58;;;;;;;;;;5110941;27;20072;-63
2022/07/21 06:23:47;;;;;;;28.15;21.45;;;;;;;;;;5108610;27;20128;-63
2022/07/21 06:26:14;;;;;;;23.65;19.55;;;;;;;;;;5109372;27;20048;-64
2022/07/21 06:28:41;;;;;;;23.30;20.00;;;;;;;;;;5109783;27;20052;-65
2022/07/21 06:31:07;;;;;;;22.13;18.58;;;;;;;;;;5108416;27;20096;-64
2022/07/21 06:33:34;;;;;;;24.20;18.92;;;;;;;;;;5109864;28;20048;-64
2022/07/21 06:36:00;;;;;;;27.55;19.63;;;;;;;;;;5105862;28;20055;-64
2022/07/21 06:38:27;;;;;;;24.75;20.05;;;;;;;;;;5101794;28;20052;-64
2022/07/21 06:40:53;;;;;;;20.67;17.83;;;;;;;;;;5109747;27;20090;-65
2022/07/21 06:43:20;;;;;;;26.80;19.55;;;;;;;;;;5104740;28;20603;-66
2022/07/21 06:45:55;;;;;;;;;;;;;;;;;;5097062;28;20580;-65
2022/07/21 06:48:21;;;;;;;27.15;19.48;;;;;;;;;;5106485;27;46463;-66
2022/07/21 06:50:48;;;;;;;24.02;17.95;;;;;;;;;;5106723;28;20049;-66
2022/07/21 06:53:15;;;;;;;31.67;20.65;;;;;;;;;;5093221;28;20051;-63
2022/07/21 06:55:41;;;;;;;24.15;19.73;;;;;;;;;;5104091;28;20522;-64
2022/07/21 06:58:08;;;;;;;26.17;21.08;;;;;;;;;;5111131;27;20074;-64
2022/07/21 07:00:34;;;;;;;27.42;20.05;;;;;;;;;;5111612;28;20515;-66
2022/07/21 07:03:02;;;;;;;28.92;22.20;;;;;;;;;;5113703;27;20131;-65
2022/07/21 07:05:30;;;;;;;25.83;19.23;;;;;;;;;;5113542;27;20063;-66
2022/07/21 07:07:57;;;;;;;35.03;23.30;;;;;;;;;;5110229;27;20056;-65
2022/07/21 07:10:23;;;;;;;31.92;22.55;;;;;;;;;;5091859;28;20186;-65
2022/07/21 07:12:49;;;;;;;29.80;24.27;;;;;;;;;;5097546;28;20052;-67
2022/07/21 07:15:36;;;;;;;35.65;25.27;;;;;;;;;;5112017;28;20513;-65
2022/07/21 07:18:02;;;;;;;34.78;23.42;;;;;;;;;;5112855;27;20418;-65
2022/07/21 07:20:28;;;;;;;34.60;24.55;;;;;;;;;;5106725;28;20048;-65
2022/07/21 07:22:55;;;;;;;41.85;25.27;;;;;;;;;;5113170;27;20525;-66
2022/07/21 07:25:21;;;;;;;30.15;24.35;;;;;;;;;;5113114;27;20048;-66
2022/07/21 07:27:56;;;;;;;;;;;;;;;;;;5112685;27;20062;-66
2022/07/21 07:30:23;;;;;;;36.60;24.40;;;;;;;;;;5109670;27;46902;-64
2022/07/21 07:32:50;;;;;;;36.22;23.58;;;;;;;;;;5113145;27;20178;-66
2022/07/21 07:35:17;;;;;;;36.70;24.95;;;;;;;;;;5111976;28;20058;-66
2022/07/21 07:37:45;;;;;;;34.75;24.10;;;;;;;;;;5111048;27;20139;-63
2022/07/21 07:40:15;;;;;;;37.20;26.05;;;;;;;;;;5112135;27;20062;-66
2022/07/21 07:42:42;;;;;;;40.20;25.52;;;;;;;;;;5111506;27;20074;-63
2022/07/21 07:45:10;;;;;;;36.05;25.20;;;;;;;;;;5113320;27;20526;-64
2022/07/21 07:47:37;;;;;;;39.47;26.63;;;;;;;;;;5112943;27;20499;-64
2022/07/21 07:50:04;;;;;;;38.55;25.48;;;;;;;;;;5108659;28;20068;-65
2022/07/21 07:52:31;;;;;;;34.80;24.85;;;;;;;;;;5111866;27;20096;-65
2022/07/21 07:54:57;;;;;;;33.78;25.15;;;;;;;;;;5112072;28;20056;-64
2022/07/21 07:57:30;;;;;;;38.53;25.90;;;;;;;;;;5110037;28;20048;-64
2022/07/21 07:59:56;;;;;;;34.00;23.08;;;;;;;;;;5109987;27;20044;-66
2022/07/21 08:02:22;;;;;;;37.50;26.52;;;;;;;;;;5100785;27;20136;-65
2022/07/21 08:04:49;;;;;;;34.85;25.15;;;;;;;;;;5091828;28;20061;-64
2022/07/21 08:07:15;;;;;;;41.75;27.00;;;;;;;;;;5102761;27;20052;-64
2022/07/21 08:09:41;;;;;;;35.67;25.80;;;;;;;;;;5110811;27;20127;-62
2022/07/21 08:12:08;;;;;;;36.90;25.92;;;;;;;;;;5100108;27;20186;-63
2022/07/21 08:14:34;;;;;;;39.47;27.33;;;;;;;;;;5112465;27;20505;-65
2022/07/21 08:17:01;;;;;;;38.83;26.63;;;;;;;;;;5112223;28;20494;-64
2022/07/21 08:19:27;;;;;;;37.33;26.58;;;;;;;;;;5109879;28;20488;-64
2022/07/21 08:21:54;;;;;;;33.53;23.77;;;;;;;;;;5111258;27;20058;-68
2022/07/21 08:24:39;;;;;;;35.67;26.08;;;;;;;;;;5110639;27;20055;-69
2022/07/21 08:27:05;;;;;;;39.30;26.60;;;;;;;;;;5106793;27;20059;-68
2022/07/21 08:29:32;;;;;;;39.58;26.65;;;;;;;;;;5109475;27;20470;-67
2022/07/21 08:31:58;;;;;;;43.15;26.92;;;;;;;;;;5111126;27;20493;-69
2022/07/21 08:34:25;;;;;;;35.22;26.23;;;;;;;;;;5111703;27;20079;-67
2022/07/21 08:36:51;;;;;;;36.33;27.55;;;;;;;;;;5110945;27;20135;-68
2022/07/21 08:39:17;;;;;;;38.45;25.40;;;;;;;;;;5102262;27;20052;-68
2022/07/21 08:41:44;;;;;;;37.35;25.40;;;;;;;;;;5110636;27;20142;-68
2022/07/21 08:44:16;;;;;;;37.35;27.27;;;;;;;;;;5111707;27;20538;-67
2022/07/21 08:46:43;;;;;;;34.55;25.65;;;;;;;;;;5111354;27;20055;-67
2022/07/21 08:49:10;;;;;;;41.17;26.48;;;;;;;;;;5111773;27;20060;-67
2022/07/21 08:51:36;;;;;;;35.65;25.48;;;;;;;;;;5108671;27;20512;-68
2022/07/21 08:54:03;;;;;;;40.83;26.80;;;;;;;;;;5110778;27;20062;-69
2022/07/21 08:56:31;;;;;;;39.25;26.27;;;;;;;;;;5100405;28;20052;-69
2022/07/21 08:58:57;;;;;;;37.67;28.50;;;;;;;;;;5108014;27;20131;-68
2022/07/21 09:01:24;;;;;;;37.30;24.88;;;;;;;;;;5108954;27;20537;-68
2022/07/21 09:03:51;;;;;;;44.58;27.05;;;;;;;;;;5108323;27;20044;-72
2022/07/21 09:06:18;;;;;;;39.60;25.00;;;;;;;;;;5112368;27;20048;-70
2022/07/21 09:08:45;;;;;;;32.10;22.67;;;;;;;;;;5110819;27;20078;-73
2022/07/21 09:11:20;;;;;;;29.10;22.05;;;;;;;;;;5107915;27;20058;-71
2022/07/21 09:13:51;;;;;;;28.45;20.08;;;;;;;;;;5111114;27;20139;-70
2022/07/21 09:16:33;;;;;;;22.77;17.95;;;;;;;;;;5106681;28;20048;-68
2022/07/21 09:19:00;;;;;;;23.48;17.85;;;;;;;;;;5106447;27;20224;-68
2022/07/21 09:21:26;;;;;;;27.33;19.42;;;;;;;;;;5107599;28;20052;-70
2022/07/21 09:24:09;;;;;;;21.33;17.40;;;;;;;;;;5108324;28;20066;-68
2022/07/21 09:26:55;;;;;;;27.27;17.17;;;;;;;;;;5107931;28;20063;-69
2022/07/21 09:29:22;;;;;;;17.52;12.98;;;;;;;;;;5109316;27;20491;-69
2022/07/21 09:31:48;;;;;;;17.70;10.40;;;;;;;;;;5108102;27;20059;-69
2022/07/21 09:34:14;;;;;;;13.02;8.98;;;;;;;;;;5107349;28;20097;-71
2022/07/21 09:36:57;;;;;;;12.15;9.02;;;;;;;;;;5111181;27;20142;-70
2022/07/21 09:39:41;;;;;;;13.77;8.43;;;;;;;;;;5110837;28;20062;-68
2022/07/21 09:42:17;;;;;;;11.10;9.37;;;;;;;;;;5109076;28;20076;-71
2022/07/21 09:44:45;;;;;;;8.77;7.75;;;;;;;;;;5110232;28;20559;-69
2022/07/21 09:47:14;;;;;;;10.52;7.15;;;;;;;;;;5108290;28;20060;-70
2022/07/21 09:49:41;;;;;;;8.77;7.13;;;;;;;;;;5108301;27;20060;-69
2022/07/21 09:52:29;;;;;;;11.95;6.22;;;;;;;;;;5109767;27;20063;-68
2022/07/21 09:55:09;;;;;;;13.40;6.60;;;;;;;;;;5110222;27;20183;-69
2022/07/21 09:57:36;;;;;;;8.68;6.20;;;;;;;;;;5108216;28;20062;-70
2022/07/21 10:00:06;;;;;;;7.05;5.78;;;;;;;;;;5101211;28;20432;-68
2022/07/21 10:02:43;;;;;;;6.57;5.43;;;;;;;;;;5109171;27;20079;-68
2022/07/21 10:05:14;;;;;;;5.80;5.30;;;;;;;;;;5109443;27;20131;-68
2022/07/21 10:07:44;;;;;;;8.80;5.18;;;;;;;;;;5109774;27;20060;-68
2022/07/21 10:10:11;;;;;;;8.02;5.22;;;;;;;;;;5109645;28;20129;-67
2022/07/21 10:12:38;;;;;;;6.28;4.85;;;;;;;;;;5105696;27;20139;-67
2022/07/21 10:15:05;;;;;;;6.20;5.38;;;;;;;;;;5104536;27;20492;-68
2022/07/21 10:17:31;;;;;;;6.70;5.05;;;;;;;;;;5094681;27;20140;-69
2022/07/21 10:20:01;;;;;;;4.72;4.30;;;;;;;;;;5109787;27;20048;-68
2022/07/21 10:22:34;;;;;;;5.07;4.40;;;;;;;;;;5103928;27;20131;-66
2022/07/21 10:25:01;;;;;;;7.43;5.35;;;;;;;;;;5107190;28;20509;-66
2022/07/21 10:27:27;;;;;;;5.53;4.80;;;;;;;;;;5109108;28;20533;-66
2022/07/21 10:30:15;;;;;;;4.53;4.13;;;;;;;;;;5110084;28;20063;-68
2022/07/21 10:32:48;;;;;;;6.40;4.20;;;;;;;;;;5111710;27;20052;-66
2022/07/21 10:35:25;;;;;;;11.13;4.90;;;;;;;;;;5112120;27;20059;-66
2022/07/21 10:37:52;;;;;;;5.35;4.75;;;;;;;;;;5111721;27;20052;-67
2022/07/21 10:40:18;;;;;;;6.85;5.75;;;;;;;;;;5112486;27;20055;-67
2022/07/21 10:42:45;;;;;;;8.45;5.80;;;;;;;;;;5113655;28;20434;-66
2022/07/21 10:45:31;;;;;;;6.93;5.78;;;;;;;;;;5113813;28;20139;-66
2022/07/21 10:47:57;;;;;;;8.07;6.40;;;;;;;;;;5104388;27;20516;-68
2022/07/21 10:50:31;;;;;;;7.03;6.32;;;;;;;;;;5109768;27;20048;-66
2022/07/21 10:52:58;;;;;;;8.18;6.90;;;;;;;;;;5109907;27;20054;-68
2022/07/21 10:55:26;;;;;;;8.43;6.68;;;;;;;;;;5109056;28;20087;-67
2022/07/21 10:58:09;;;;;;;9.95;7.15;;;;;;;;;;5111066;27;20055;-68
2022/07/21 11:00:36;;;;;;;7.90;6.72;;;;;;;;;;5108483;27;20064;-68
2022/07/21 11:03:03;;;;;;;8.77;7.32;;;;;;;;;;5111999;28;20109;-68
2022/07/21 11:05:33;;;;;;;7.85;7.05;;;;;;;;;;5106256;27;20056;-68
2022/07/21 11:08:08;;;;;;;8.15;6.50;;;;;;;;;;5110098;27;20064;-68
2022/07/21 11:10:35;;;;;;;8.38;6.88;;;;;;;;;;5109728;27;20049;-68
2022/07/21 11:13:02;;;;;;;7.97;6.53;;;;;;;;;;5107130;28;20144;-67
2022/07/21 11:15:53;;;;;;;8.05;6.05;;;;;;;;;;5111556;27;20242;-69
2022/07/21 11:18:20;;;;;;;8.50;7.13;;;;;;;;;;5109765;27;20125;-70
2022/07/21 11:21:02;;;;;;;7.60;6.85;;;;;;;;;;5107608;28;20059;-68
2022/07/21 11:23:55;;;;;;;10.73;7.57;;;;;;;;;;5106676;28;20056;-68
2022/07/21 11:26:26;;;;;;;7.18;6.40;;;;;;;;;;5102979;28;20056;-69
2022/07/21 11:29:05;;;;;;;7.38;6.68;;;;;;;;;;5111504;28;20063;-69
2022/07/21 11:31:44;;;;;;;10.23;7.75;;;;;;;;;;5112854;28;20098;-68
2022/07/21 11:34:11;;;;;;;7.72;6.55;;;;;;;;;;5104384;27;20049;-70
2022/07/21 11:36:38;;;;;;;7.20;6.20;;;;;;;;;;5120188;27;20079;-70
2022/07/21 11:39:09;;;;;;;9.07;7.20;;;;;;;;;;5122238;27;20048;-70
2022/07/21 11:41:36;;;;;;;10.00;7.18;;;;;;;;;;5106590;27;20627;-71
2022/07/21 11:44:03;;;;;;;6.03;5.43;;;;;;;;;;5113633;27;20048;-70
2022/07/21 11:46:48;;;;;;;6.07;5.45;;;;;;;;;;5115327;27;20143;-69
2022/07/21 11:49:15;;;;;;;6.43;5.40;;;;;;;;;;5114592;27;20191;-70
2022/07/21 11:51:49;;;;;;;6.60;5.93;;;;;;;;;;5112248;27;20055;-69
2022/07/21 11:54:21;;;;;;;8.63;5.57;;;;;;;;;;5120454;27;20196;-70
2022/07/21 11:56:52;;;;;;;7.15;6.45;;;;;;;;;;5121692;27;20105;-69
2022/07/21 11:59:19;;;;;;;7.13;5.28;;;;;;;;;;5120878;27;20526;-70
2022/07/21 12:01:48;;;;;;;6.60;5.88;;;;;;;;;;5123269;27;20118;-71
2022/07/21 12:04:25;;;;;;;5.65;4.80;;;;;;;;;;5110348;27;20051;-70
2022/07/21 12:06:52;;;;;;;5.80;5.00;;;;;;;;;;5106112;27;20567;-70
2022/07/21 12:09:19;;;;;;;6.68;4.95;;;;;;;;;;5116067;27;20503;-70
2022/07/21 12:11:45;;;;;;;6.93;5.07;;;;;;;;;;5112226;27;20056;-71
2022/07/21 12:14:12;;;;;;;6.22;5.15;;;;;;;;;;5110227;27;20593;-71
2022/07/21 12:16:51;;;;;;;6.28;5.00;;;;;;;;;;5122430;27;20134;-70
2022/07/21 12:19:18;;;;;;;6.10;4.47;;;;;;;;;;5105032;27;20127;-70
2022/07/21 12:21:50;;;;;;;6.10;4.90;;;;;;;;;;5108602;27;20056;-72
2022/07/21 12:24:17;;;;;;;6.28;4.07;;;;;;;;;;5124083;27;20112;-71
2022/07/21 12:26:44;;;;;;;7.53;5.18;;;;;;;;;;5124028;27;20089;-71
2022/07/21 12:29:24;;;;;;;4.50;4.03;;;;;;;;;;5105934;27;20139;-71
2022/07/21 12:31:50;;;;;;;6.05;4.93;;;;;;;;;;5110520;27;20083;-73
2022/07/21 12:34:22;;;;;;;6.68;4.60;;;;;;;;;;5111193;27;20500;-68
2022/07/21 12:36:52;;;;;;;6.35;4.95;;;;;;;;;;5115698;27;20051;-70
2022/07/21 12:42:07;;;;;;;5.68;4.18;;;;;;;;;;5110958;27;20059;-68
2022/07/21 12:44:33;;;;;;;4.18;3.78;;;;;;;;;;5099220;27;20079;-69
2022/07/21 12:47:26;;;;;;;4.32;3.63;;;;;;;;;;5112800;27;20076;-67
2022/07/21 12:49:57;;;;;;;6.43;4.45;;;;;;;;;;5108935;27;20582;-67
2022/07/21 12:52:39;;;;;;;6.28;4.43;;;;;;;;;;5106951;27;20149;-67
2022/07/21 12:55:06;;;;;;;5.43;4.30;;;;;;;;;;5108137;27;20048;-67
2022/07/21 12:57:33;;;;;;;4.30;3.95;;;;;;;;;;5106882;28;20515;-67
2022/07/21 13:00:00;;;;;;;5.25;4.47;;;;;;;;;;5110176;27;20109;-70
2022/07/21 13:02:27;;;;;;;6.40;5.07;;;;;;;;;;5106941;28;20143;-68
2022/07/21 13:04:54;;;;;;;5.03;4.35;;;;;;;;;;5109438;27;20063;-70
2022/07/21 13:07:20;;;;;;;4.45;4.05;;;;;;;;;;5107937;27;20085;-71
2022/07/21 13:09:46;;;;;;;5.88;4.20;;;;;;;;;;5109449;27;20055;-70
2022/07/21 13:12:13;;;;;;;5.95;4.57;;;;;;;;;;5112117;27;20149;-68
2022/07/21 13:14:40;;;;;;;4.43;3.95;;;;;;;;;;5104786;27;20522;-67
2022/07/21 13:17:07;;;;;;;4.65;4.07;;;;;;;;;;5104757;27;20052;-69
2022/07/21 13:19:37;;;;;;;6.65;4.15;;;;;;;;;;5112299;27;20056;-67
2022/07/21 13:22:04;;;;;;;6.68;3.80;;;;;;;;;;5110148;27;20505;-69
2022/07/21 13:24:30;;;;;;;8.43;4.13;;;;;;;;;;5110806;27;20056;-69
2022/07/21 13:26:56;;;;;;;4.07;3.67;;;;;;;;;;5107189;27;20066;-69
2022/07/21 13:29:23;;;;;;;4.95;3.75;;;;;;;;;;5109989;27;20048;-69
2022/07/21 13:31:49;;;;;;;3.45;3.15;;;;;;;;;;5107289;27;20055;-68
2022/07/21 13:34:16;;;;;;;4.18;3.25;;;;;;;;;;5108831;27;20047;-68
2022/07/21 13:36:42;;;;;;;4.53;3.30;;;;;;;;;;5108621;27;20565;-68
2022/07/21 13:39:09;;;;;;;3.47;2.30;;;;;;;;;;5111123;27;20525;-68
2022/07/21 13:41:55;;;;;;;2.63;2.42;;;;;;;;;;5110173;27;20451;-68
2022/07/21 13:44:41;;;;;;;3.65;2.50;;;;;;;;;;5114507;27;20051;-68
2022/07/21 13:47:08;;;;;;;3.55;2.78;;;;;;;;;;5109089;27;20086;-68
2022/07/21 13:49:34;;;;;;;5.13;3.17;;;;;;;;;;5106525;27;20063;-69
2022/07/21 13:52:01;;;;;;;4.32;2.97;;;;;;;;;;5109805;27;20056;-69
2022/07/21 13:54:27;;;;;;;2.22;2.08;;;;;;;;;;5109661;27;21974;-68
2022/07/21 13:56:59;;;;;;;3.28;2.10;;;;;;;;;;5099425;27;20109;-67
2022/07/21 13:59:26;;;;;;;3.70;2.53;;;;;;;;;;5108756;27;20048;-68
2022/07/21 14:01:52;;;;;;;4.70;2.13;;;;;;;;;;5107568;27;20056;-68
2022/07/21 14:04:19;;;;;;;2.80;2.50;;;;;;;;;;5120641;27;20511;-68
2022/07/21 14:06:49;;;;;;;3.15;2.72;;;;;;;;;;5113245;27;20052;-67
2022/07/21 14:09:16;;;;;;;2.42;2.20;;;;;;;;;;5107262;27;20048;-68
2022/07/21 14:11:42;;;;;;;4.47;2.75;;;;;;;;;;5105272;27;20065;-66
2022/07/21 14:14:10;;;;;;;3.35;2.80;;;;;;;;;;5108511;27;20051;-66
2022/07/21 14:16:37;;;;;;;3.35;2.88;;;;;;;;;;5108047;27;20127;-68
2022/07/21 14:19:03;;;;;;;5.65;2.83;;;;;;;;;;5106737;27;20105;-67
2022/07/21 14:21:29;;;;;;;4.80;3.13;;;;;;;;;;5109980;27;20141;-68
2022/07/21 14:26:41;;;;;;;4.90;3.38;;;;;;;;;;5108063;27;20527;-67
2022/07/21 14:29:07;;;;;;;4.50;3.28;;;;;;;;;;5102751;27;20510;-67
2022/07/21 14:31:34;;;;;;;4.28;3.15;;;;;;;;;;5100307;28;20063;-67
2022/07/21 14:34:01;;;;;;;6.28;3.25;;;;;;;;;;5105848;27;20056;-66
2022/07/21 14:36:27;;;;;;;6.03;3.00;;;;;;;;;;5110789;27;20590;-66
2022/07/21 14:38:53;;;;;;;4.72;3.83;;;;;;;;;;5124516;27;20142;-65
2022/07/21 14:41:20;;;;;;;4.47;3.20;;;;;;;;;;5107616;27;20066;-66
2022/07/21 14:43:48;;;;;;;3.45;3.15;;;;;;;;;;5100996;27;20599;-65
2022/07/21 14:46:15;;;;;;;6.25;3.88;;;;;;;;;;5108922;28;20105;-68